createdAt,value
2018-12-26T00:00:49.627Z,102297.88
2018-12-26T00:03:17.506Z,102299.12
2018-12-26T00:05:45.304Z,102299.84
2018-12-26T00:08:13.685Z,102303.64
2018-12-26T00:10:41.402Z,102304.98
2018-12-26T00:13:09.105Z,102307.41
2018-12-26T00:15:37.078Z,102301.19
2018-12-26T00:18:04.522Z,102309.38
2018-12-26T00:20:31.963Z,102307.54
2018-12-26T00:22:59.761Z,102300.83
2018-12-26T00:25:27.322Z,102299.58
2018-12-26T00:27:54.440Z,102293.34
2018-12-26T00:30:21.922Z,102295.66
2018-12-26T00:32:49.587Z,102298.59
2018-12-26T00:35:16.879Z,102288.47
2018-12-26T00:37:44.722Z,102285.16
2018-12-26T00:40:12.385Z,102280.02
2018-12-26T00:42:40.121Z,102282.47
2018-12-26T00:45:07.364Z,102283.83
2018-12-26T00:47:34.604Z,102282.86
2018-12-26T00:50:02.296Z,102285.89
2018-12-26T00:52:30.313Z,102292.88
2018-12-26T00:54:58.442Z,102287.39
2018-12-26T00:57:26.981Z,102279.45
2018-12-26T00:59:54.086Z,102276.69
2018-12-26T01:02:21.964Z,102284.71
2018-12-26T01:04:49.564Z,102283.55
2018-12-26T01:07:17.165Z,102273.39
2018-12-26T01:09:45.116Z,102280.20
2018-12-26T01:12:12.577Z,102275.54
2018-12-26T01:14:40.146Z,102270.15
2018-12-26T01:17:08.270Z,102271.32
2018-12-26T01:19:36.606Z,102264.61
2018-12-26T01:22:03.869Z,102257.02
2018-12-26T01:24:31.878Z,102268.95
2018-12-26T01:26:59.022Z,102262.02
2018-12-26T01:29:26.465Z,102259.34
2018-12-26T01:31:53.596Z,102257.23
2018-12-26T01:34:21.137Z,102264.52
2018-12-26T01:36:48.413Z,102250.16
2018-12-26T01:39:15.983Z,102249.56
2018-12-26T01:41:43.161Z,102250.38
2018-12-26T01:44:10.819Z,102250.25
2018-12-26T01:46:38.801Z,102253.09
2018-12-26T01:49:05.943Z,102254.31
2018-12-26T01:51:33.741Z,102260.04
2018-12-26T01:54:01.235Z,102255.69
2018-12-26T01:56:28.477Z,102254.23
2018-12-26T01:58:59.017Z,102266.28
2018-12-26T02:01:26.897Z,102272.62
2018-12-26T02:03:54.172Z,102279.99
2018-12-26T02:06:21.849Z,102286.68
2018-12-26T02:08:49.592Z,102286.64
2018-12-26T02:11:17.480Z,102266.94
2018-12-26T02:13:44.800Z,102269.09
2018-12-26T02:16:11.932Z,102261.38
2018-12-26T02:18:39.293Z,102271.09
2018-12-26T02:21:06.806Z,102257.03
2018-12-26T02:23:33.945Z,102252.60
2018-12-26T02:26:01.443Z,102242.11
2018-12-26T02:28:29.218Z,102243.86
2018-12-26T02:30:56.650Z,102251.53
2018-12-26T02:33:24.389Z,102247.84
2018-12-26T02:35:51.967Z,102245.45
2018-12-26T02:38:19.568Z,102238.42
2018-12-26T02:40:47.395Z,102240.37
2018-12-26T02:43:14.615Z,102237.00
2018-12-26T02:45:42.095Z,102232.78
2018-12-26T02:48:09.313Z,102232.50
2018-12-26T02:50:36.645Z,102230.50
2018-12-26T02:53:04.323Z,102237.66
2018-12-26T02:55:32.376Z,102239.41
2018-12-26T02:57:59.648Z,102241.35
2018-12-26T03:00:27.000Z,102236.28
2018-12-26T03:02:54.865Z,102237.05
2018-12-26T03:05:22.275Z,102231.81
2018-12-26T03:07:51.017Z,102228.16
2018-12-26T03:10:18.557Z,102224.42
2018-12-26T03:12:45.926Z,102228.23
2018-12-26T03:15:13.614Z,102226.89
2018-12-26T03:17:41.380Z,102222.95
2018-12-26T03:20:08.844Z,102224.18
2018-12-26T03:22:36.769Z,102227.95
2018-12-26T03:25:04.315Z,102221.21
2018-12-26T03:27:32.330Z,102222.14
2018-12-26T03:30:00.263Z,102227.88
2018-12-26T03:32:27.866Z,102220.20
2018-12-26T03:34:55.812Z,102217.11
2018-12-26T03:37:23.263Z,102209.27
2018-12-26T03:39:51.191Z,102204.67
2018-12-26T03:42:18.498Z,102205.97
2018-12-26T03:44:47.819Z,102192.78
2018-12-26T03:47:16.434Z,102196.50
2018-12-26T03:49:44.550Z,102195.86
2018-12-26T03:52:12.469Z,102197.60
2018-12-26T03:54:40.713Z,102185.93
2018-12-26T03:57:08.352Z,102194.61
2018-12-26T03:59:36.443Z,102188.64
2018-12-26T04:02:04.383Z,102177.25
2018-12-26T04:04:32.016Z,102177.73
2018-12-26T04:06:59.727Z,102176.30
2018-12-26T04:09:27.294Z,102173.16
2018-12-26T04:11:55.230Z,102178.89
2018-12-26T04:14:22.755Z,102176.70
2018-12-26T04:16:50.305Z,102178.71
2018-12-26T04:19:18.681Z,102172.50
2018-12-26T04:21:46.718Z,102176.03
2018-12-26T04:24:15.073Z,102172.47
2018-12-26T04:26:42.673Z,102174.38
2018-12-26T04:29:10.606Z,102177.23
2018-12-26T04:31:38.545Z,102177.36
2018-12-26T04:34:06.406Z,102183.45
2018-12-26T04:36:33.959Z,102176.51
2018-12-26T04:39:01.802Z,102183.45
2018-12-26T04:41:29.457Z,102178.98
2018-12-26T04:43:56.745Z,102186.25
2018-12-26T04:46:24.246Z,102185.80
2018-12-26T04:48:52.150Z,102182.72
2018-12-26T04:51:19.306Z,102183.45
2018-12-26T04:53:47.211Z,102182.42
2018-12-26T04:56:14.659Z,102181.17
2018-12-26T04:58:42.163Z,102183.89
2018-12-26T05:01:10.044Z,102188.19
2018-12-26T05:03:37.968Z,102188.92
2018-12-26T05:06:05.846Z,102191.35
2018-12-26T05:08:33.639Z,102189.31
2018-12-26T05:11:00.882Z,102194.83
2018-12-26T05:13:28.497Z,102202.27
2018-12-26T05:15:56.132Z,102197.41
2018-12-26T05:18:23.753Z,102199.64
2018-12-26T05:20:51.540Z,102205.24
2018-12-26T05:23:19.549Z,102205.52
2018-12-26T05:25:46.835Z,102209.08
2018-12-26T05:28:14.112Z,102207.38
2018-12-26T05:30:41.241Z,102213.51
2018-12-26T05:33:08.642Z,102212.58
2018-12-26T05:35:36.148Z,102214.50
2018-12-26T05:38:03.509Z,102220.23
2018-12-26T05:40:31.025Z,102223.55
2018-12-26T05:42:59.364Z,102227.20
2018-12-26T05:45:26.882Z,102241.03
2018-12-26T05:47:54.169Z,102238.58
2018-12-26T05:50:21.331Z,102233.83
2018-12-26T05:52:49.176Z,102231.26
2018-12-26T05:55:16.339Z,102242.61
2018-12-26T05:57:43.599Z,102246.39
2018-12-26T06:00:10.857Z,102254.33
2018-12-26T06:02:38.520Z,102252.88
2018-12-26T06:05:05.876Z,102249.09
2018-12-26T06:07:33.033Z,102255.91
2018-12-26T06:10:00.845Z,102258.47
2018-12-26T06:12:28.428Z,102260.31
2018-12-26T06:14:55.960Z,102266.56
2018-12-26T06:17:23.104Z,102262.53
2018-12-26T06:19:51.497Z,102259.12
2018-12-26T06:22:18.986Z,102254.61
2018-12-26T06:24:46.438Z,102255.45
2018-12-26T06:27:14.501Z,102259.72
2018-12-26T06:29:42.075Z,102268.86
2018-12-26T06:32:09.374Z,102264.60
2018-12-26T06:34:36.509Z,102255.47
2018-12-26T06:37:03.768Z,102254.86
2018-12-26T06:39:31.213Z,102251.94
2018-12-26T06:41:58.681Z,102248.88
2018-12-26T06:44:26.133Z,102246.81
2018-12-26T06:46:53.366Z,102248.04
2018-12-26T06:49:20.803Z,102247.05
2018-12-26T06:51:48.425Z,102240.32
2018-12-26T06:54:15.822Z,102249.96
2018-12-26T06:56:43.406Z,102259.12
2018-12-26T06:59:10.678Z,102256.44
2018-12-26T07:01:37.959Z,102258.17
2018-12-26T07:04:05.340Z,102254.13
2018-12-26T07:06:33.563Z,102245.58
2018-12-26T07:09:01.129Z,102256.18
2018-12-26T07:11:28.956Z,102258.87
2018-12-26T07:13:56.362Z,102262.28
2018-12-26T07:16:23.792Z,102272.03
2018-12-26T07:18:51.688Z,102269.80
2018-12-26T07:21:19.493Z,102267.98
2018-12-26T07:23:46.982Z,102272.14
2018-12-26T07:26:14.412Z,102265.53
2018-12-26T07:28:41.715Z,102272.84
2018-12-26T07:31:09.013Z,102279.56
2018-12-26T07:33:36.551Z,102284.12
2018-12-26T07:36:06.028Z,102281.77
2018-12-26T07:38:33.550Z,102292.66
2018-12-26T07:41:00.757Z,102294.49
2018-12-26T07:43:28.196Z,102305.70
2018-12-26T07:45:56.109Z,102299.47
2018-12-26T07:48:23.573Z,102303.02
2018-12-26T07:50:51.373Z,102298.34
2018-12-26T07:53:19.384Z,102303.63
2018-12-26T07:55:47.121Z,102301.30
2018-12-26T07:58:17.713Z,102308.13
2018-12-26T08:00:44.052Z,102303.42
2018-12-26T08:03:11.572Z,102303.91
2018-12-26T08:05:39.503Z,102302.30
2018-12-26T08:08:06.952Z,102305.55
2018-12-26T08:10:34.431Z,102302.30
2018-12-26T08:13:01.686Z,102299.25
2018-12-26T08:15:28.847Z,102293.28
2018-12-26T08:17:56.128Z,102300.10
2018-12-26T08:20:23.279Z,102300.48
2018-12-26T08:22:50.702Z,102307.09
2018-12-26T08:25:18.361Z,102305.64
2018-12-26T08:27:45.984Z,102311.23
2018-12-26T08:30:13.675Z,102306.62
2018-12-26T08:32:40.782Z,102305.28
2018-12-26T08:35:08.521Z,102305.91
2018-12-26T08:37:36.390Z,102307.48
2018-12-26T08:40:04.440Z,102303.43
2018-12-26T08:42:31.947Z,102307.00
2018-12-26T08:44:59.668Z,102301.14
2018-12-26T08:47:26.952Z,102304.68
2018-12-26T08:49:54.720Z,102313.81
2018-12-26T08:52:21.843Z,102314.83
2018-12-26T08:54:49.214Z,102306.77
2018-12-26T08:57:16.832Z,102307.02
2018-12-26T08:59:48.462Z,102306.98
2018-12-26T09:02:15.718Z,102302.25
2018-12-26T09:04:43.065Z,102298.82
2018-12-26T09:07:10.589Z,102302.84
2018-12-26T09:09:38.255Z,102306.04
2018-12-26T09:12:05.476Z,102311.54
2018-12-26T09:14:32.946Z,102314.34
2018-12-26T09:17:00.118Z,102310.45
2018-12-26T09:19:27.989Z,102302.39
2018-12-26T09:21:55.757Z,102309.12
2018-12-26T09:24:23.104Z,102314.02
2018-12-26T09:26:50.351Z,102313.52
2018-12-26T09:29:17.966Z,102318.43
2018-12-26T09:31:45.245Z,102329.77
2018-12-26T09:34:13.328Z,102320.75
2018-12-26T09:36:40.572Z,102320.27
2018-12-26T09:39:08.070Z,102323.67
2018-12-26T09:41:42.392Z,102322.94
2018-12-26T09:44:10.330Z,102316.58
2018-12-26T09:46:37.602Z,102313.40
2018-12-26T09:49:05.406Z,102311.96
2018-12-26T09:51:32.766Z,102320.85
2018-12-26T09:54:00.311Z,102317.19
2018-12-26T09:56:27.917Z,102318.03
2018-12-26T09:58:55.372Z,102307.77
2018-12-26T10:01:22.518Z,102301.41
2018-12-26T10:03:50.193Z,102301.27
2018-12-26T10:06:17.640Z,102304.22
2018-12-26T10:08:45.784Z,102301.53
2018-12-26T10:11:13.489Z,102293.55
2018-12-26T10:13:41.055Z,102292.70
2018-12-26T10:16:08.418Z,102295.93
2018-12-26T10:18:35.638Z,102300.19
2018-12-26T10:21:03.261Z,102295.89
2018-12-26T10:23:35.105Z,102296.24
2018-12-26T10:26:03.169Z,102288.17
2018-12-26T10:28:30.282Z,102291.63
2018-12-26T10:30:58.344Z,102288.17
2018-12-26T10:33:26.538Z,102284.85
2018-12-26T10:35:53.657Z,102290.02
2018-12-26T10:38:20.831Z,102290.00
2018-12-26T10:40:48.316Z,102283.26
2018-12-26T10:43:15.796Z,102284.48
2018-12-26T10:45:43.360Z,102274.98
2018-12-26T10:48:11.511Z,102269.47
2018-12-26T10:50:39.035Z,102260.77
2018-12-26T10:53:07.268Z,102265.98
2018-12-26T10:55:34.988Z,102268.91
2018-12-26T10:58:03.116Z,102265.98
2018-12-26T11:00:31.007Z,102265.27
2018-12-26T11:02:58.987Z,102262.31
2018-12-26T11:05:30.929Z,102259.77
2018-12-26T11:07:58.344Z,102264.77
2018-12-26T11:10:25.912Z,102264.84
2018-12-26T11:12:53.123Z,102262.48
2018-12-26T11:15:20.397Z,102254.89
2018-12-26T11:17:49.089Z,102257.45
2018-12-26T11:20:16.544Z,102264.30
2018-12-26T11:22:44.729Z,102255.31
2018-12-26T11:25:12.226Z,102250.31
2018-12-26T11:27:39.641Z,102237.64
2018-12-26T11:30:08.517Z,102239.95
2018-12-26T11:32:36.014Z,102237.56
2018-12-26T11:35:03.774Z,102240.14
2018-12-26T11:37:31.401Z,102226.92
2018-12-26T11:39:59.531Z,102226.44
2018-12-26T11:42:27.171Z,102224.13
2018-12-26T11:44:54.337Z,102217.55
2018-12-26T11:47:21.534Z,102213.14
2018-12-26T11:49:49.440Z,102212.22
2018-12-26T11:52:16.581Z,102217.33
2018-12-26T11:54:44.128Z,102217.65
2018-12-26T11:57:11.655Z,102215.45
2018-12-26T11:59:39.271Z,102216.41
2018-12-26T12:02:06.588Z,102210.17
2018-12-26T12:04:34.365Z,102211.98
2018-12-26T12:07:01.737Z,102212.62
2018-12-26T12:09:29.856Z,102213.97
2018-12-26T12:11:57.667Z,102208.44
2018-12-26T12:14:25.609Z,102209.53
2018-12-26T12:16:53.030Z,102206.91
2018-12-26T12:19:21.244Z,102199.04
2018-12-26T12:21:49.566Z,102201.70
2018-12-26T12:24:17.149Z,102210.27
2018-12-26T12:26:44.631Z,102209.87
2018-12-26T12:29:12.995Z,102207.40
2018-12-26T12:31:40.440Z,102200.59
2018-12-26T12:34:08.213Z,102191.45
2018-12-26T12:36:36.291Z,102194.46
2018-12-26T12:39:06.601Z,102191.02
2018-12-26T12:41:33.947Z,102192.76
2018-12-26T12:44:01.905Z,102193.08
2018-12-26T12:46:29.616Z,102197.30
2018-12-26T12:48:57.796Z,102189.34
2018-12-26T12:51:28.452Z,102192.86
2018-12-26T12:53:55.765Z,102195.28
2018-12-26T12:56:23.456Z,102191.84
2018-12-26T12:58:50.884Z,102187.84
2018-12-26T13:01:18.430Z,102188.42
2018-12-26T13:03:46.884Z,102186.64
2018-12-26T13:06:14.450Z,102187.11
2018-12-26T13:08:41.811Z,102187.08
2018-12-26T13:11:09.360Z,102192.36
2018-12-26T13:13:37.346Z,102183.64
2018-12-26T13:16:05.625Z,102184.49
2018-12-26T13:18:33.128Z,102190.06
2018-12-26T13:21:00.634Z,102187.78
2018-12-26T13:23:27.896Z,102185.61
2018-12-26T13:25:55.451Z,102182.84
2018-12-26T13:28:23.196Z,102178.11
2018-12-26T13:30:50.328Z,102183.78
2018-12-26T13:33:22.198Z,102184.36
2018-12-26T13:35:50.286Z,102188.45
2018-12-26T13:38:18.368Z,102181.05
2018-12-26T13:40:45.750Z,102185.00
2018-12-26T13:43:13.366Z,102190.64
2018-12-26T13:45:41.014Z,102188.59
2018-12-26T13:48:08.481Z,102193.63
2018-12-26T13:50:36.145Z,102189.20
2018-12-26T13:53:04.018Z,102187.36
2018-12-26T13:55:31.685Z,102185.89
2018-12-26T13:57:58.805Z,102186.20
2018-12-26T14:00:26.202Z,102189.89
2018-12-26T14:02:54.025Z,102189.25
2018-12-26T14:05:21.836Z,102189.72
2018-12-26T14:07:49.846Z,102190.31
2018-12-26T14:10:17.338Z,102184.53
2018-12-26T14:12:45.209Z,102193.42
2018-12-26T14:15:12.629Z,102193.12
2018-12-26T14:17:40.139Z,102194.70
2018-12-26T14:20:07.886Z,102189.16
2018-12-26T14:22:35.881Z,102195.95
2018-12-26T14:25:03.707Z,102203.10
2018-12-26T14:27:31.612Z,102197.45
2018-12-26T14:29:59.301Z,102194.78
2018-12-26T14:32:26.439Z,102200.78
2018-12-26T14:34:53.619Z,102201.73
2018-12-26T14:37:21.041Z,102195.80
2018-12-26T14:39:48.931Z,102198.89
2018-12-26T14:42:16.754Z,102203.87
2018-12-26T14:44:44.152Z,102199.94
2018-12-26T14:47:11.898Z,102196.63
2018-12-26T14:49:39.514Z,102195.77
2018-12-26T14:52:07.009Z,102202.44
2018-12-26T14:54:34.543Z,102197.23
2018-12-26T14:57:01.675Z,102191.09
2018-12-26T14:59:29.232Z,102193.44
2018-12-26T15:01:57.465Z,102187.09
2018-12-26T15:04:25.173Z,102186.63
2018-12-26T15:06:52.817Z,102190.78
2018-12-26T15:09:20.720Z,102187.38
2018-12-26T15:11:48.140Z,102192.41
2018-12-26T15:14:15.937Z,102190.56
2018-12-26T15:16:43.492Z,102196.84
2018-12-26T15:19:18.636Z,102193.94
2018-12-26T15:21:46.649Z,102193.80
2018-12-26T15:24:13.816Z,102187.70
2018-12-26T15:26:41.879Z,102192.09
2018-12-26T15:29:09.255Z,102195.98
2018-12-26T15:31:36.768Z,102197.66
2018-12-26T15:34:04.653Z,102200.73
2018-12-26T15:36:32.236Z,102195.31
2018-12-26T15:38:59.418Z,102201.55
2018-12-26T15:41:27.104Z,102190.84
2018-12-26T15:43:54.832Z,102181.34
2018-12-26T15:46:22.300Z,102187.94
2018-12-26T15:48:50.543Z,102186.20
2018-12-26T15:51:18.083Z,102186.95
2018-12-26T15:53:45.579Z,102186.70
2018-12-26T15:56:13.240Z,102192.44
2018-12-26T15:58:40.422Z,102188.59
2018-12-26T16:01:07.528Z,102189.00
2018-12-26T16:03:34.836Z,102190.27
2018-12-26T16:06:02.196Z,102192.69
2018-12-26T16:08:29.703Z,102189.58
2018-12-26T16:10:56.953Z,102185.78
2018-12-26T16:13:24.355Z,102184.00
2018-12-26T16:15:52.848Z,102186.42
2018-12-26T16:18:21.174Z,102185.84
2018-12-26T16:20:48.425Z,102189.28
2018-12-26T16:23:16.014Z,102186.20
2018-12-26T16:25:43.514Z,102183.62
2018-12-26T16:28:11.326Z,102180.49
2018-12-26T16:30:46.185Z,102174.58
2018-12-26T16:33:08.025Z,102177.27
2018-12-26T16:35:35.582Z,102175.08
2018-12-26T16:38:02.958Z,102167.70
2018-12-26T16:40:30.849Z,102168.41
2018-12-26T16:42:58.743Z,102165.40
2018-12-26T16:45:26.042Z,102168.87
2018-12-26T16:47:53.985Z,102163.98
2018-12-26T16:50:26.958Z,102163.48
2018-12-26T16:52:51.885Z,102159.63
2018-12-26T16:55:19.474Z,102156.69
2018-12-26T16:57:47.238Z,102162.03
2018-12-26T17:00:15.083Z,102157.18
2018-12-26T17:02:42.393Z,102158.59
2018-12-26T17:05:10.304Z,102156.61
2018-12-26T17:07:37.444Z,102160.34
2018-12-26T17:10:06.370Z,102159.37
2018-12-26T17:12:33.726Z,102159.02
2018-12-26T17:15:00.996Z,102156.58
2018-12-26T17:17:29.242Z,102156.69
2018-12-26T17:19:56.894Z,102155.34
2018-12-26T17:22:24.413Z,102157.28
2018-12-26T17:24:51.690Z,102162.03
2018-12-26T17:27:19.145Z,102155.66
2018-12-26T17:29:46.317Z,102158.63
2018-12-26T17:32:13.877Z,102154.12
2018-12-26T17:34:41.852Z,102162.21
2018-12-26T17:37:09.460Z,102161.36
2018-12-26T17:39:37.066Z,102159.52
2018-12-26T17:42:04.183Z,102156.33
2018-12-26T17:44:31.703Z,102162.35
2018-12-26T17:46:59.253Z,102161.00
2018-12-26T17:49:26.673Z,102160.90
2018-12-26T17:51:54.953Z,102158.03
2018-12-26T17:54:56.583Z,102158.63
2018-12-26T17:57:33.243Z,102157.08
2018-12-26T18:00:32.336Z,102155.13
2018-12-26T18:02:59.927Z,102157.25
2018-12-26T18:05:27.384Z,102164.33
2018-12-26T18:07:54.700Z,102159.94
2018-12-26T18:10:22.991Z,102156.61
2018-12-26T18:12:50.625Z,102153.14
2018-12-26T18:15:17.913Z,102152.78
2018-12-26T18:17:45.244Z,102152.18
2018-12-26T18:20:13.197Z,102157.85
2018-12-26T18:22:40.853Z,102152.75
2018-12-26T18:25:08.578Z,102157.89
2018-12-26T18:27:36.143Z,102160.34
2018-12-26T18:30:08.129Z,102161.19
2018-12-26T18:32:35.507Z,102157.25
2018-12-26T18:35:03.148Z,102157.00
2018-12-26T18:37:30.957Z,102157.89
2018-12-26T18:39:58.107Z,102153.95
2018-12-26T18:42:25.618Z,102158.10
2018-12-26T18:44:53.093Z,102161.86
2018-12-26T18:47:20.758Z,102157.14
2018-12-26T18:49:47.963Z,102163.20
2018-12-26T18:52:16.037Z,102163.73
2018-12-26T18:54:43.280Z,102162.25
2018-12-26T18:57:10.809Z,102169.44
2018-12-26T18:59:37.929Z,102162.17
2018-12-26T19:02:05.685Z,102157.25
2018-12-26T19:04:33.261Z,102153.88
2018-12-26T19:07:00.969Z,102150.55
2018-12-26T19:09:28.685Z,102147.33
2018-12-26T19:11:56.419Z,102145.52
2018-12-26T19:14:23.896Z,102141.59
2018-12-26T19:16:51.248Z,102140.80
2018-12-26T19:19:18.874Z,102142.97
2018-12-26T19:21:46.653Z,102138.01
2018-12-26T19:24:14.541Z,102138.39
2018-12-26T19:26:42.113Z,102146.09
2018-12-26T19:29:09.733Z,102135.63
2018-12-26T19:31:39.656Z,102132.52
2018-12-26T19:34:06.201Z,102140.70
2018-12-26T19:36:33.322Z,102139.36
2018-12-26T19:39:00.811Z,102142.26
2018-12-26T19:41:28.427Z,102140.17
2018-12-26T19:43:56.692Z,102135.77
2018-12-26T19:46:23.861Z,102136.66
2018-12-26T19:48:51.629Z,102129.72
2018-12-26T19:51:19.066Z,102135.95
2018-12-26T19:53:46.602Z,102134.71
2018-12-26T19:56:14.420Z,102129.40
2018-12-26T19:58:41.700Z,102132.38
2018-12-26T20:01:09.089Z,102127.34
2018-12-26T20:03:36.509Z,102122.95
2018-12-26T20:06:04.356Z,102125.04
2018-12-26T20:08:31.589Z,102122.27
2018-12-26T20:10:58.989Z,102118.09
2018-12-26T20:13:29.647Z,102118.45
2018-12-26T20:15:57.235Z,102120.61
2018-12-26T20:19:54.222Z,102116.75
2018-12-26T20:22:21.857Z,102113.06
2018-12-26T20:24:49.591Z,102108.49
2018-12-26T20:27:17.082Z,102109.27
2018-12-26T20:29:44.577Z,102102.11
2018-12-26T20:32:12.366Z,102104.91
2018-12-26T20:34:42.452Z,102099.42
2018-12-26T20:37:10.286Z,102096.97
2018-12-26T20:39:37.778Z,102093.47
2018-12-26T20:42:05.475Z,102094.46
2018-12-26T20:44:33.458Z,102093.35
2018-12-26T20:47:01.264Z,102088.63
2018-12-26T20:49:28.668Z,102092.79
2018-12-26T20:51:56.123Z,102095.20
2018-12-26T20:54:24.282Z,102096.65
2018-12-26T20:56:51.534Z,102090.05
2018-12-26T20:59:19.189Z,102089.20
2018-12-26T21:01:46.467Z,102094.95
2018-12-26T21:04:14.249Z,102086.44
2018-12-26T21:06:41.506Z,102087.86
2018-12-26T21:09:08.724Z,102081.59
2018-12-26T21:11:36.227Z,102083.44
2018-12-26T21:14:03.803Z,102071.91
2018-12-26T21:16:32.911Z,102071.70
2018-12-26T21:19:00.428Z,102067.02
2018-12-26T21:21:28.652Z,102059.39
2018-12-26T21:23:55.793Z,102064.33
2018-12-26T21:26:23.427Z,102055.94
2018-12-26T21:28:51.614Z,102060.23
2018-12-26T21:31:18.705Z,102049.70
2018-12-26T21:33:46.226Z,102059.12
2018-12-26T21:36:14.353Z,102061.96
2018-12-26T21:38:42.030Z,102056.69
2018-12-26T21:41:10.004Z,102054.14
2018-12-26T21:43:37.248Z,102056.99
2018-12-26T21:46:04.815Z,102053.50
2018-12-26T21:48:32.632Z,102048.87
2018-12-26T21:51:00.097Z,102056.25
2018-12-26T21:53:27.577Z,102055.89
2018-12-26T21:55:55.145Z,102052.20
2018-12-26T21:58:25.947Z,102053.95
2018-12-26T22:00:53.434Z,102051.36
2018-12-26T22:03:20.682Z,102052.45
2018-12-26T22:05:47.794Z,102050.50
2018-12-26T22:08:14.913Z,102048.21
2018-12-26T22:10:42.991Z,102045.72
2018-12-26T22:13:10.156Z,102045.33
2018-12-26T22:15:37.810Z,102042.42
2018-12-26T22:18:05.593Z,102042.42
2018-12-26T22:20:32.810Z,102046.51
2018-12-26T22:23:00.753Z,102036.54
2018-12-26T22:25:28.640Z,102040.63
2018-12-26T22:27:56.774Z,102029.00
2018-12-26T22:30:24.303Z,102026.12
2018-12-26T22:32:51.841Z,102023.66
2018-12-26T22:35:19.419Z,102024.52
2018-12-26T22:37:46.576Z,102022.67
2018-12-26T22:40:13.686Z,102021.06
2018-12-26T22:42:40.772Z,102016.08
2018-12-26T22:45:08.251Z,102018.88
2018-12-26T22:47:35.770Z,102011.70
2018-12-26T22:50:04.010Z,102011.35
2018-12-26T22:52:32.458Z,102002.78
2018-12-26T22:55:00.394Z,102007.31
2018-12-26T22:57:27.688Z,101998.73
2018-12-26T22:59:56.285Z,101992.91
2018-12-26T23:02:23.664Z,101996.75
2018-12-26T23:04:51.145Z,101994.84
2018-12-26T23:07:18.631Z,102001.88
2018-12-26T23:09:46.437Z,101998.59
2018-12-26T23:12:14.012Z,101995.78
2018-12-26T23:14:41.272Z,101997.52
2018-12-26T23:17:08.564Z,101990.70
2018-12-26T23:19:35.810Z,101984.83
2018-12-26T23:22:03.360Z,101983.08
2018-12-26T23:24:31.338Z,101991.06
2018-12-26T23:26:58.967Z,101984.86
2018-12-26T23:29:26.721Z,101978.17
2018-12-26T23:31:54.950Z,101981.63
2018-12-26T23:34:22.525Z,101975.55
2018-12-26T23:36:49.929Z,101978.78
2018-12-26T23:39:18.110Z,101976.75
2018-12-26T23:41:45.673Z,101983.13
2018-12-26T23:44:13.240Z,101981.42
2018-12-26T23:46:40.594Z,101985.06
2018-12-26T23:49:08.104Z,101979.56
2018-12-26T23:51:35.833Z,101985.87
2018-12-26T23:54:03.320Z,101985.75
2018-12-26T23:56:31.210Z,101979.92
2018-12-26T23:58:58.817Z,101984.52
